East Lexington, Virginia
Current Conditions -  °F | °C
As of 5:55 AM on Friday 31 Oct 2014 (Local Time) from KHSP Reporting Station
Scattered Clouds Scattered Clouds  
Wind Chill: 34°   Ceiling: Unl
Heat Index: 34°   Visibility: 10mi
Dew Point: 30°   Wind: 3mph
Humidity: 85%   Direction: 90°E
Pressure: 29.92"   Gusts: NA
Location:  37.7866°N, 79.5193°W
Report Text: KHSP 310955Z AUTO 09003KT 10SM SCT026 01/M01 A2992 RMK AO2 T00101013
Loading
Personal Weather Stations






























Interactive Weather Map
Tropical Storm Tracking
New forecast layout! Learn more

10-Day Weather Forecast

Advertisements
Track Severe Weather on mobile